createdAt,value
2023-05-08T00:01:19.819Z,0
2023-05-08T00:03:00.332Z,0
2023-05-08T00:04:40.669Z,0
2023-05-08T00:06:21.053Z,0
2023-05-08T00:08:01.604Z,0
2023-05-08T00:09:41.891Z,0
2023-05-08T00:11:22.450Z,0
2023-05-08T00:13:02.788Z,0
2023-05-08T00:14:43.163Z,0
2023-05-08T00:16:23.562Z,0
2023-05-08T00:18:04.007Z,0
2023-05-08T00:19:44.401Z,0
2023-05-08T00:21:24.851Z,0
2023-05-08T00:23:05.178Z,0
2023-05-08T00:24:45.694Z,0
2023-05-08T00:26:26.102Z,0
2023-05-08T00:28:06.477Z,0
2023-05-08T00:29:46.980Z,0
2023-05-08T00:31:27.444Z,0
2023-05-08T00:33:07.814Z,0
2023-05-08T00:34:48.121Z,0
2023-05-08T00:36:28.511Z,0
2023-05-08T00:38:08.927Z,0
2023-05-08T00:39:49.380Z,0
2023-05-08T00:41:29.873Z,0
2023-05-08T00:43:10.270Z,0
2023-05-08T00:44:50.647Z,0
2023-05-08T00:46:31.111Z,0
2023-05-08T00:48:11.443Z,0
2023-05-08T00:49:51.859Z,0
2023-05-08T00:51:32.240Z,0
2023-05-08T00:53:12.647Z,0
2023-05-08T00:54:53.013Z,0
2023-05-08T00:56:33.501Z,0
2023-05-08T00:58:13.828Z,0
2023-05-08T00:59:54.221Z,0
2023-05-08T01:01:34.727Z,0
2023-05-08T01:03:15.114Z,0
2023-05-08T01:04:55.396Z,0
2023-05-08T01:06:35.825Z,0
2023-05-08T01:08:16.318Z,0
2023-05-08T01:09:56.662Z,0
2023-05-08T01:11:37.022Z,0
2023-05-08T01:13:17.511Z,0
2023-05-08T01:14:57.887Z,0
2023-05-08T01:16:38.283Z,0
2023-05-08T01:18:18.716Z,0
2023-05-08T01:19:59.212Z,0
2023-05-08T01:21:39.606Z,0
2023-05-08T01:23:19.976Z,0
2023-05-08T01:25:00.461Z,0
2023-05-08T01:26:40.882Z,0
2023-05-08T01:28:21.299Z,0
2023-05-08T01:30:01.705Z,0
2023-05-08T01:31:42.024Z,0
2023-05-08T01:33:22.390Z,0
2023-05-08T01:35:02.620Z,0
2023-05-08T01:36:42.907Z,0
2023-05-08T01:38:23.236Z,0
2023-05-08T01:40:03.681Z,0
2023-05-08T01:41:44.112Z,0
2023-05-08T01:43:24.530Z,0
2023-05-08T01:45:04.986Z,0
2023-05-08T01:46:45.505Z,0
2023-05-08T01:48:25.837Z,0
2023-05-08T01:50:06.280Z,0
2023-05-08T01:51:46.650Z,0
2023-05-08T01:53:27.085Z,0
2023-05-08T01:55:07.470Z,0
2023-05-08T01:56:47.985Z,0
2023-05-08T01:58:28.263Z,0
2023-05-08T02:00:08.726Z,0
2023-05-08T02:01:49.131Z,0
2023-05-08T02:03:29.598Z,0
2023-05-08T02:05:09.917Z,0
2023-05-08T02:06:50.331Z,0
2023-05-08T02:08:30.772Z,0
2023-05-08T02:10:11.555Z,0
2023-05-08T02:11:51.484Z,0
2023-05-08T02:13:31.778Z,0
2023-05-08T02:15:12.069Z,0
2023-05-08T02:16:52.463Z,0
2023-05-08T02:18:32.730Z,0
2023-05-08T02:20:13.341Z,0
2023-05-08T02:21:53.536Z,0
2023-05-08T02:23:33.841Z,0
2023-05-08T02:25:14.246Z,0
2023-05-08T02:26:54.692Z,0
2023-05-08T02:28:35.116Z,0
2023-05-08T02:30:15.687Z,0
2023-05-08T02:31:55.918Z,0
2023-05-08T02:33:36.329Z,0
2023-05-08T02:35:16.728Z,0
2023-05-08T02:36:57.100Z,0
2023-05-08T02:38:37.483Z,0
2023-05-08T02:40:17.877Z,0
2023-05-08T02:41:58.310Z,0
2023-05-08T02:43:38.701Z,0
2023-05-08T02:45:19.098Z,0
2023-05-08T02:46:59.559Z,0
2023-05-08T02:48:39.961Z,0
2023-05-08T02:50:20.369Z,0
2023-05-08T02:52:00.792Z,0
2023-05-08T02:53:41.223Z,0
2023-05-08T02:55:21.504Z,0
2023-05-08T02:57:01.846Z,0
2023-05-08T02:58:42.169Z,0
2023-05-08T03:00:22.481Z,0
2023-05-08T03:02:02.959Z,0
2023-05-08T03:03:43.716Z,0
2023-05-08T03:05:23.668Z,0
2023-05-08T03:07:04.165Z,0
2023-05-08T03:08:44.598Z,0
2023-05-08T03:10:25.015Z,0
2023-05-08T03:12:05.437Z,0
2023-05-08T03:13:45.885Z,0
2023-05-08T03:15:26.318Z,0
2023-05-08T03:17:06.728Z,0
2023-05-08T03:18:47.069Z,0
2023-05-08T03:20:27.517Z,0
2023-05-08T03:22:07.955Z,0
2023-05-08T03:23:48.287Z,0
2023-05-08T03:25:28.705Z,0
2023-05-08T03:27:09.133Z,0
2023-05-08T03:28:49.626Z,0
2023-05-08T03:30:30.009Z,0
2023-05-08T03:32:10.337Z,0
2023-05-08T03:33:50.612Z,0
2023-05-08T03:35:30.976Z,0
2023-05-08T03:37:11.293Z,0
2023-05-08T03:38:51.616Z,0
2023-05-08T03:40:31.944Z,0
2023-05-08T03:42:12.236Z,0
2023-05-08T03:43:52.660Z,0
2023-05-08T03:45:33.018Z,0
2023-05-08T03:47:13.510Z,0
2023-05-08T03:48:53.895Z,0
2023-05-08T03:50:34.451Z,0
2023-05-08T03:52:14.842Z,0
2023-05-08T03:53:55.259Z,0
2023-05-08T03:55:35.699Z,0
2023-05-08T03:57:16.167Z,0.056
2023-05-08T03:58:56.609Z,0.061
2023-05-08T04:00:37.055Z,0.066
2023-05-08T04:02:17.606Z,0.067
2023-05-08T04:03:57.930Z,0.071
2023-05-08T04:05:38.369Z,0.072
2023-05-08T04:07:18.748Z,0.077
2023-05-08T04:08:59.205Z,0.08
2023-05-08T04:10:39.561Z,0.086
2023-05-08T04:12:19.921Z,0.093
2023-05-08T04:14:00.340Z,0.102
2023-05-08T04:15:40.737Z,0.106
2023-05-08T04:17:21.248Z,0.11
2023-05-08T04:19:01.564Z,0.116
2023-05-08T04:20:41.987Z,0.121
2023-05-08T04:22:22.392Z,0.132
2023-05-08T04:24:02.861Z,0.144
2023-05-08T04:25:43.294Z,0.171
2023-05-08T04:27:23.687Z,0.182
2023-05-08T04:29:04.110Z,0.196
2023-05-08T04:30:44.578Z,0.209
2023-05-08T04:32:25.058Z,0.221
2023-05-08T04:34:05.375Z,0.238
2023-05-08T04:35:45.758Z,0.256
2023-05-08T04:37:26.179Z,0.28
2023-05-08T04:39:06.588Z,0.307
2023-05-08T04:40:46.979Z,0.338
2023-05-08T04:42:27.380Z,0.37
2023-05-08T04:44:07.760Z,0.395
2023-05-08T04:45:48.125Z,0.427
2023-05-08T04:47:28.620Z,0.451
2023-05-08T04:49:08.925Z,0.462
2023-05-08T04:50:49.290Z,0.482
2023-05-08T04:52:29.711Z,0.49
2023-05-08T04:54:10.145Z,0.504
2023-05-08T04:55:50.546Z,0.52
2023-05-08T04:57:31.057Z,0.529
2023-05-08T04:59:11.413Z,0.544
2023-05-08T05:00:51.857Z,0.56
2023-05-08T05:02:32.385Z,0.578
2023-05-08T05:04:12.912Z,0.593
2023-05-08T05:05:53.300Z,0.618
2023-05-08T05:07:33.686Z,0.653
2023-05-08T05:09:14.032Z,0.676
2023-05-08T05:10:54.426Z,0.701
2023-05-08T05:12:34.883Z,0.735
2023-05-08T05:14:15.343Z,0.769
2023-05-08T05:15:55.745Z,0.8
2023-05-08T05:17:36.191Z,0.833
2023-05-08T05:19:16.555Z,0.863
2023-05-08T05:20:56.893Z,0.892
2023-05-08T05:22:37.295Z,0.917
2023-05-08T05:24:17.710Z,0.946
2023-05-08T05:25:58.189Z,0.964
2023-05-08T05:27:38.640Z,0.975
2023-05-08T05:29:19.039Z,0.983
2023-05-08T05:30:59.489Z,0.98
2023-05-08T05:32:39.940Z,0.985
2023-05-08T05:34:20.316Z,0.788
2023-05-08T05:36:00.705Z,0.918
2023-05-08T05:37:41.160Z,0.913
2023-05-08T05:39:21.545Z,0.898
2023-05-08T05:41:01.958Z,0.896
2023-05-08T05:42:42.304Z,0.91
2023-05-08T05:44:22.698Z,0.933
2023-05-08T05:46:03.107Z,0.969
2023-05-08T05:47:43.557Z,1.003
2023-05-08T05:49:23.802Z,1.006
2023-05-08T05:51:04.274Z,1.042
2023-05-08T05:52:44.570Z,1.033
2023-05-08T05:54:24.986Z,1.034
2023-05-08T05:56:05.390Z,1.042
2023-05-08T05:57:45.903Z,1.058
2023-05-08T05:59:26.318Z,1.09
2023-05-08T06:01:06.634Z,1.117
2023-05-08T06:02:47.280Z,1.159
2023-05-08T06:04:27.604Z,1.211
2023-05-08T06:06:07.975Z,1.248
2023-05-08T06:07:48.387Z,1.334
2023-05-08T06:09:28.832Z,1.406
2023-05-08T06:11:09.202Z,1.445
2023-05-08T06:12:49.667Z,1.495
2023-05-08T06:14:30.019Z,1.561
2023-05-08T06:16:10.442Z,1.611
2023-05-08T06:17:50.945Z,1.597
2023-05-08T06:19:31.341Z,1.498
2023-05-08T06:21:11.779Z,1.622
2023-05-08T06:22:52.237Z,1.781
2023-05-08T06:24:32.698Z,1.79
2023-05-08T06:26:13.066Z,1.895
2023-05-08T06:27:53.536Z,1.926
2023-05-08T06:29:34.064Z,2.059
2023-05-08T06:31:14.469Z,2.286
2023-05-08T06:32:54.864Z,2.41
2023-05-08T06:34:35.260Z,2.492
2023-05-08T06:36:15.710Z,2.525
2023-05-08T06:37:56.018Z,2.69
2023-05-08T06:39:36.403Z,2.748
2023-05-08T06:41:16.909Z,2.813
2023-05-08T06:42:57.359Z,2.882
2023-05-08T06:44:37.707Z,2.905
2023-05-08T06:46:18.117Z,2.84
2023-05-08T06:47:58.518Z,2.593
2023-05-08T06:49:38.922Z,2.08
2023-05-08T06:51:19.282Z,2.538
2023-05-08T06:52:59.668Z,1.888
2023-05-08T06:54:39.912Z,2.572
2023-05-08T06:56:20.389Z,2.954
2023-05-08T06:58:00.846Z,2.724
2023-05-08T06:59:41.207Z,1.723
2023-05-08T07:01:21.721Z,1.779
2023-05-08T07:03:02.140Z,1.769
2023-05-08T07:04:42.645Z,2.156
2023-05-08T07:06:22.929Z,2.352
2023-05-08T07:08:03.273Z,2.393
2023-05-08T07:09:43.689Z,2.731
2023-05-08T07:11:24.147Z,3.035
2023-05-08T07:13:04.609Z,2.605
2023-05-08T07:14:45.001Z,2.047
2023-05-08T07:16:25.399Z,2.475
2023-05-08T07:18:05.913Z,2.85
2023-05-08T07:19:46.185Z,3.43
2023-05-08T07:21:26.659Z,3.791
2023-05-08T07:23:07.085Z,4.229
2023-05-08T07:24:47.564Z,4.382
2023-05-08T07:26:28.001Z,4.284
2023-05-08T07:28:08.432Z,4.499
2023-05-08T07:29:48.835Z,4.811
2023-05-08T07:31:29.307Z,4.82
2023-05-08T07:33:09.826Z,4.179
2023-05-08T07:34:50.171Z,4.1
2023-05-08T07:36:30.573Z,3.42
2023-05-08T07:38:10.942Z,3.941
2023-05-08T07:39:51.460Z,3.69
2023-05-08T07:41:31.964Z,3.753
2023-05-08T07:43:12.265Z,3.158
2023-05-08T07:44:55.101Z,2.832
2023-05-08T07:46:33.059Z,3.905
2023-05-08T07:48:13.536Z,3.496
2023-05-08T07:49:53.891Z,3.507
2023-05-08T07:51:34.257Z,3.218
2023-05-08T07:53:14.648Z,2.162
2023-05-08T07:54:55.043Z,2.194
2023-05-08T07:56:35.500Z,1.998
2023-05-08T07:58:15.856Z,2.197
2023-05-08T07:59:56.206Z,1.847
2023-05-08T08:01:36.722Z,1.698
2023-05-08T08:03:17.149Z,2.516
2023-05-08T08:04:57.519Z,3.427
2023-05-08T08:06:37.831Z,3.079
2023-05-08T08:08:18.244Z,2.464
2023-05-08T08:09:58.652Z,2.24
2023-05-08T08:11:39.077Z,3.763
2023-05-08T08:13:19.401Z,4.569
2023-05-08T08:14:59.759Z,5.311
2023-05-08T08:16:40.180Z,5.764
2023-05-08T08:18:20.572Z,5.385
2023-05-08T08:20:01.010Z,5.875
2023-05-08T08:21:41.396Z,5.868
2023-05-08T08:23:21.935Z,4.237
2023-05-08T08:25:02.347Z,4.155
2023-05-08T08:26:42.769Z,5.622
2023-05-08T08:28:23.182Z,5.793
2023-05-08T08:30:16.250Z,5.868
2023-05-08T08:31:44.107Z,5.948
2023-05-08T08:33:24.585Z,5.995
2023-05-08T08:35:04.976Z,5.957
2023-05-08T08:36:45.399Z,6.027
2023-05-08T08:38:25.855Z,6.047
2023-05-08T08:40:06.208Z,6.073
2023-05-08T08:41:46.583Z,6.089
2023-05-08T08:43:27.001Z,6.103
2023-05-08T08:45:07.422Z,6.116
2023-05-08T08:46:47.964Z,6.128
2023-05-08T08:48:28.343Z,6.148
2023-05-08T08:50:09.547Z,6.188
2023-05-08T08:51:49.048Z,6.197
2023-05-08T08:53:29.443Z,6.164
2023-05-08T08:55:09.773Z,6.248
2023-05-08T08:56:50.181Z,6.253
2023-05-08T08:58:30.614Z,6.299
2023-05-08T09:00:11.031Z,6.324
2023-05-08T09:01:51.483Z,6.358
2023-05-08T09:03:32.020Z,6.32
2023-05-08T09:05:12.503Z,6.421
2023-05-08T09:06:52.732Z,6.415
2023-05-08T09:08:33.055Z,6.426
2023-05-08T09:10:13.449Z,6.432
2023-05-08T09:11:53.853Z,6.413
2023-05-08T09:13:34.286Z,6.468
2023-05-08T09:15:14.876Z,6.53
2023-05-08T09:16:54.953Z,6.564
2023-05-08T09:18:35.299Z,6.558
2023-05-08T09:20:15.950Z,6.577
2023-05-08T09:21:56.037Z,6.61
2023-05-08T09:23:36.427Z,6.659
2023-05-08T09:25:16.859Z,6.683
2023-05-08T09:26:57.323Z,6.713
2023-05-08T09:28:37.737Z,6.723
2023-05-08T09:30:18.168Z,6.764
2023-05-08T09:31:58.569Z,6.756
2023-05-08T09:33:38.920Z,6.814
2023-05-08T09:35:19.296Z,6.849
2023-05-08T09:36:59.651Z,6.85
2023-05-08T09:38:39.985Z,6.879
2023-05-08T09:40:20.358Z,6.903
2023-05-08T09:42:00.628Z,6.932
2023-05-08T09:43:40.950Z,6.886
2023-05-08T09:45:21.353Z,6.929
2023-05-08T09:47:01.834Z,6.741
2023-05-08T09:48:42.161Z,7.018
2023-05-08T09:50:22.531Z,7.03
2023-05-08T09:52:02.964Z,7.028
2023-05-08T09:53:43.330Z,7.058
2023-05-08T09:55:23.769Z,7.071
2023-05-08T09:57:04.124Z,7.132
2023-05-08T09:58:44.616Z,7.116
2023-05-08T10:00:25.035Z,7.183
2023-05-08T10:02:05.431Z,7.149
2023-05-08T10:03:46.000Z,7.213
2023-05-08T10:05:26.398Z,7.208
2023-05-08T10:07:06.743Z,7.211
2023-05-08T10:08:47.210Z,7.244
2023-05-08T10:10:27.649Z,7.275
2023-05-08T10:12:08.054Z,7.305
2023-05-08T10:13:48.477Z,7.314
2023-05-08T10:15:28.921Z,7.338
2023-05-08T10:17:09.462Z,7.361
2023-05-08T10:18:49.810Z,7.388
2023-05-08T10:20:30.218Z,7.4
2023-05-08T10:22:10.619Z,7.413
2023-05-08T10:23:51.067Z,7.404
2023-05-08T10:25:31.493Z,7.432
2023-05-08T10:27:11.901Z,7.426
2023-05-08T10:28:52.298Z,7.412
2023-05-08T10:30:32.675Z,7.4
2023-05-08T10:32:13.037Z,7.447
2023-05-08T10:33:53.488Z,7.488
2023-05-08T10:35:33.871Z,7.483
2023-05-08T10:37:14.235Z,7.496
2023-05-08T10:38:54.715Z,7.503
2023-05-08T10:40:35.102Z,7.507
2023-05-08T10:42:15.482Z,7.496
2023-05-08T10:43:55.893Z,7.536
2023-05-08T10:45:36.319Z,7.544
2023-05-08T10:47:16.771Z,7.514
2023-05-08T10:48:57.165Z,7.495
2023-05-08T10:50:37.518Z,7.597
2023-05-08T10:52:17.866Z,7.611
2023-05-08T10:53:58.283Z,7.611
2023-05-08T10:55:38.690Z,7.575
2023-05-08T10:57:19.107Z,7.545
2023-05-08T10:58:59.554Z,7.58
2023-05-08T11:00:40.022Z,7.556
2023-05-08T11:02:20.526Z,7.52
2023-05-08T11:04:00.963Z,7.544
2023-05-08T11:05:41.404Z,7.57
2023-05-08T11:07:21.878Z,7.532
2023-05-08T11:09:02.276Z,7.59
2023-05-08T11:10:42.734Z,7.567
2023-05-08T11:12:23.162Z,7.575
2023-05-08T11:14:03.635Z,7.581
2023-05-08T11:15:44.131Z,7.59
2023-05-08T11:17:24.561Z,7.566
2023-05-08T11:19:04.966Z,7.558
2023-05-08T11:20:45.380Z,7.621
2023-05-08T11:22:25.921Z,7.595
2023-05-08T11:24:06.305Z,7.598
2023-05-08T11:25:46.637Z,7.622
2023-05-08T11:27:27.103Z,7.647
2023-05-08T11:29:07.499Z,7.579
2023-05-08T11:30:47.907Z,7.653
2023-05-08T11:32:28.270Z,7.647
2023-05-08T11:34:08.856Z,7.589
2023-05-08T11:35:49.132Z,7.576
2023-05-08T11:37:29.585Z,7.582
2023-05-08T11:39:09.965Z,7.598
2023-05-08T11:40:50.372Z,7.621
2023-05-08T11:42:31.021Z,7.579
2023-05-08T11:44:13.143Z,7.552
2023-05-08T11:45:51.720Z,7.552
2023-05-08T11:47:32.044Z,7.533
2023-05-08T11:49:12.503Z,7.458
2023-05-08T11:50:52.895Z,7.464
2023-05-08T11:52:33.353Z,7.526
2023-05-08T11:54:13.873Z,7.525
2023-05-08T11:55:54.223Z,7.509
2023-05-08T11:57:34.660Z,7.475
2023-05-08T11:59:15.072Z,7.493
2023-05-08T12:01:01.453Z,7.484
2023-05-08T12:02:41.883Z,7.502
2023-05-08T12:04:22.435Z,7.481
2023-05-08T12:06:02.699Z,7.481
2023-05-08T12:07:43.177Z,7.493
2023-05-08T12:09:23.555Z,7.475
2023-05-08T12:11:04.023Z,7.476
2023-05-08T12:12:44.501Z,7.326
2023-05-08T12:14:24.834Z,7.334
2023-05-08T12:16:05.308Z,7.344
2023-05-08T12:17:45.676Z,7.38
2023-05-08T12:19:26.044Z,7.307
2023-05-08T12:21:06.419Z,7.367
2023-05-08T12:22:46.766Z,7.341
2023-05-08T12:24:27.149Z,7.333
2023-05-08T12:26:07.742Z,7.304
2023-05-08T12:27:48.154Z,7.294
2023-05-08T12:29:28.537Z,7.23
2023-05-08T12:31:09.002Z,7.269
2023-05-08T12:32:49.412Z,7.31
2023-05-08T12:34:29.763Z,7.276
2023-05-08T12:36:10.184Z,7.255
2023-05-08T12:37:50.687Z,7.229
2023-05-08T12:39:31.094Z,7.192
2023-05-08T12:41:11.567Z,7.271
2023-05-08T12:42:51.953Z,7.171
2023-05-08T12:44:32.438Z,7.06
2023-05-08T12:46:12.888Z,7.168
2023-05-08T12:47:53.348Z,7.286
2023-05-08T12:49:33.724Z,7.247
2023-05-08T12:51:14.114Z,7.205
2023-05-08T12:52:54.683Z,7.208
2023-05-08T12:54:34.934Z,7.132
2023-05-08T12:56:15.308Z,7.117
2023-05-08T12:57:55.653Z,7.146
2023-05-08T12:59:36.125Z,7.074
2023-05-08T13:01:16.522Z,7.112
2023-05-08T13:02:57.018Z,7.107
2023-05-08T13:04:37.430Z,7.085
2023-05-08T13:06:17.740Z,7.089
2023-05-08T13:07:58.096Z,7.021
2023-05-08T13:09:38.586Z,6.989
2023-05-08T13:11:18.998Z,6.977
2023-05-08T13:12:59.429Z,6.963
2023-05-08T13:14:39.693Z,6.509
2023-05-08T13:16:20.042Z,6.686
2023-05-08T13:18:00.359Z,6.835
2023-05-08T13:19:40.683Z,6.872
2023-05-08T13:21:21.131Z,6.743
2023-05-08T13:23:01.485Z,6.543
2023-05-08T13:24:41.915Z,6.731
2023-05-08T13:26:22.281Z,6.764
2023-05-08T13:28:02.631Z,6.787
2023-05-08T13:29:43.045Z,6.728
2023-05-08T13:31:23.480Z,6.614
2023-05-08T13:33:04.041Z,6.616
2023-05-08T13:34:50.446Z,6.639
2023-05-08T13:36:24.690Z,6.661
2023-05-08T13:38:05.121Z,6.672
2023-05-08T13:39:45.600Z,6.646
2023-05-08T13:41:26.044Z,6.634
2023-05-08T13:43:06.458Z,6.554
2023-05-08T13:44:46.906Z,6.424
2023-05-08T13:46:27.464Z,6.365
2023-05-08T13:48:07.851Z,6.371
2023-05-08T13:49:48.137Z,6.356
2023-05-08T13:51:28.439Z,6.34
2023-05-08T13:53:08.844Z,6.285
2023-05-08T13:54:49.294Z,6.266
2023-05-08T13:56:29.705Z,6.219
2023-05-08T13:58:10.108Z,5.918
2023-05-08T13:59:50.515Z,6.083
2023-05-08T14:01:30.943Z,6.128
2023-05-08T14:03:11.422Z,6.194
2023-05-08T14:04:51.881Z,6.151
2023-05-08T14:06:32.167Z,6.193
2023-05-08T14:08:12.519Z,6.223
2023-05-08T14:09:52.919Z,6.3
2023-05-08T14:11:33.408Z,6.302
2023-05-08T14:13:13.898Z,5.754
2023-05-08T14:14:54.269Z,4.887
2023-05-08T14:16:34.816Z,4.929
2023-05-08T14:18:15.193Z,3.22
2023-05-08T14:19:55.481Z,3.215
2023-05-08T14:21:35.741Z,3.564
2023-05-08T14:23:16.069Z,2.911
2023-05-08T14:24:56.355Z,7.162
2023-05-08T14:26:36.693Z,4.669
2023-05-08T14:28:17.108Z,3.268
2023-05-08T14:29:57.500Z,3.799
2023-05-08T14:31:38.101Z,4.515
2023-05-08T14:33:19.523Z,5.923
2023-05-08T14:34:58.881Z,4.494
2023-05-08T14:36:39.141Z,4.572
2023-05-08T14:38:19.634Z,3.986
2023-05-08T14:39:59.927Z,3.836
2023-05-08T14:41:40.277Z,4.907
2023-05-08T14:43:20.703Z,2.334
2023-05-08T14:45:01.187Z,2.047
2023-05-08T14:46:41.474Z,2.164
2023-05-08T14:48:21.748Z,2.224
2023-05-08T14:50:02.113Z,2.121
2023-05-08T14:51:42.494Z,2.361
2023-05-08T14:53:23.053Z,4.51
2023-05-08T14:55:03.732Z,4.403
2023-05-08T14:56:47.046Z,6.172
2023-05-08T14:58:24.202Z,5.102
2023-05-08T15:00:04.562Z,4.924
2023-05-08T15:01:45.055Z,2.957
2023-05-08T15:03:25.489Z,5.231
2023-05-08T15:05:10.846Z,2.997
2023-05-08T15:06:46.209Z,2.179
2023-05-08T15:08:26.648Z,5.468
2023-05-08T15:10:07.121Z,5.272
2023-05-08T15:11:47.517Z,4.985
2023-05-08T15:13:27.931Z,4.502
2023-05-08T15:15:08.256Z,2.585
2023-05-08T15:16:48.733Z,2.012
2023-05-08T15:18:29.099Z,3.267
2023-05-08T15:20:09.598Z,3.334
2023-05-08T15:21:49.886Z,3.611
2023-05-08T15:23:30.423Z,1.511
2023-05-08T15:25:10.807Z,1.484
2023-05-08T15:26:51.267Z,1.89
2023-05-08T15:28:31.688Z,3.857
2023-05-08T15:30:12.075Z,3.426
2023-05-08T15:31:52.534Z,4.127
2023-05-08T15:33:32.936Z,4.06
2023-05-08T15:35:13.638Z,3.697
2023-05-08T15:36:53.770Z,3.555
2023-05-08T15:38:34.210Z,1.414
2023-05-08T15:40:14.645Z,1.727
2023-05-08T15:41:55.023Z,3.022
2023-05-08T15:43:35.466Z,3.434
2023-05-08T15:45:16.146Z,3.407
2023-05-08T15:46:56.284Z,3.392
2023-05-08T15:48:36.673Z,3.2
2023-05-08T15:50:17.077Z,3.142
2023-05-08T15:51:57.521Z,2.954
2023-05-08T15:53:37.986Z,2.967
2023-05-08T15:55:18.431Z,3.029
2023-05-08T15:56:58.911Z,2.981
2023-05-08T15:58:39.277Z,2.996
2023-05-08T16:00:20.221Z,2.99
2023-05-08T16:02:00.092Z,2.895
2023-05-08T16:03:40.483Z,2.342
2023-05-08T16:05:20.906Z,2.142
2023-05-08T16:07:01.276Z,1.959
2023-05-08T16:08:41.749Z,1.97
2023-05-08T16:10:22.261Z,1.894
2023-05-08T16:12:02.683Z,1.931
2023-05-08T16:13:43.105Z,1.907
2023-05-08T16:15:23.511Z,2.034
2023-05-08T16:17:03.981Z,1.703
2023-05-08T16:18:44.327Z,1.21
2023-05-08T16:20:24.760Z,1.354
2023-05-08T16:22:05.164Z,1.429
2023-05-08T16:23:45.630Z,1.435
2023-05-08T16:25:26.045Z,1.424
2023-05-08T16:27:06.327Z,1.409
2023-05-08T16:28:46.989Z,1.326
2023-05-08T16:30:27.163Z,1.131
2023-05-08T16:32:07.673Z,0.773
2023-05-08T16:33:48.038Z,0.724
2023-05-08T16:35:28.503Z,0.703
2023-05-08T16:37:11.969Z,0.692
2023-05-08T16:38:49.293Z,0.693
2023-05-08T16:40:29.637Z,0.701
2023-05-08T16:42:09.996Z,0.707
2023-05-08T16:43:50.420Z,0.721
2023-05-08T16:45:30.867Z,0.713
2023-05-08T16:47:11.343Z,0.737
2023-05-08T16:48:51.757Z,0.772
2023-05-08T16:50:32.185Z,0.793
2023-05-08T16:52:12.588Z,0.739
2023-05-08T16:53:52.969Z,0.82
2023-05-08T16:55:33.341Z,0.742
2023-05-08T16:57:13.781Z,0.722
2023-05-08T16:58:54.148Z,0.717
2023-05-08T17:00:34.603Z,0.72
2023-05-08T17:02:15.035Z,0.738
2023-05-08T17:03:55.447Z,0.74
2023-05-08T17:05:35.854Z,0.735
2023-05-08T17:07:16.349Z,0.688
2023-05-08T17:08:56.747Z,0.665
2023-05-08T17:10:37.182Z,0.624
2023-05-08T17:12:17.571Z,0.606
2023-05-08T17:13:57.982Z,0.597
2023-05-08T17:15:38.368Z,0.564
2023-05-08T17:17:18.758Z,0.535
2023-05-08T17:19:02.171Z,0.529
2023-05-08T17:20:39.661Z,0.53
2023-05-08T17:22:20.124Z,0.509
2023-05-08T17:24:00.496Z,0.495
2023-05-08T17:25:40.887Z,0.462
2023-05-08T17:27:21.259Z,0.448
2023-05-08T17:29:01.704Z,0.433
2023-05-08T17:30:42.129Z,0.419
2023-05-08T17:32:22.583Z,0.408
2023-05-08T17:34:03.047Z,0.395
2023-05-08T17:35:43.318Z,0.39
2023-05-08T17:37:23.715Z,0.385
2023-05-08T17:39:04.094Z,0.388
2023-05-08T17:40:44.497Z,0.388
2023-05-08T17:42:24.967Z,0.392
2023-05-08T17:44:05.427Z,0.393
2023-05-08T17:45:45.909Z,0.397
2023-05-08T17:47:26.337Z,0.401
2023-05-08T17:49:06.791Z,0.404
2023-05-08T17:50:47.261Z,0.404
2023-05-08T17:52:27.739Z,0.39
2023-05-08T17:54:08.121Z,0.388
2023-05-08T17:55:48.538Z,0.375
2023-05-08T17:57:28.995Z,0.366
2023-05-08T17:59:09.440Z,0.357
2023-05-08T18:00:49.837Z,0.349
2023-05-08T18:02:30.473Z,0.338
2023-05-08T18:04:10.741Z,0.321
2023-05-08T18:05:51.164Z,0.299
2023-05-08T18:07:31.563Z,0.279
2023-05-08T18:09:11.974Z,0.254
2023-05-08T18:10:52.439Z,0.235
2023-05-08T18:12:32.884Z,0.208
2023-05-08T18:14:13.329Z,0.184
2023-05-08T18:15:53.822Z,0.164
2023-05-08T18:17:34.286Z,0.135
2023-05-08T18:19:14.674Z,0.115
2023-05-08T18:20:58.187Z,0.096
2023-05-08T18:22:35.553Z,0.081
2023-05-08T18:24:16.025Z,0.067
2023-05-08T18:25:56.445Z,0.053
2023-05-08T18:27:36.906Z,0.044
2023-05-08T18:29:17.364Z,0.037
2023-05-08T18:30:57.833Z,0.031
2023-05-08T18:32:38.247Z,0.02
2023-05-08T18:34:18.630Z,0.019
2023-05-08T18:35:59.015Z,0
2023-05-08T18:37:39.387Z,0
2023-05-08T18:39:19.793Z,0
2023-05-08T18:41:00.260Z,0
2023-05-08T18:42:40.699Z,0
2023-05-08T18:44:21.165Z,0
2023-05-08T18:46:01.619Z,0
2023-05-08T18:47:42.079Z,0
2023-05-08T18:49:22.459Z,0
2023-05-08T18:51:02.890Z,0
2023-05-08T18:52:43.368Z,0
2023-05-08T18:54:23.798Z,0
2023-05-08T18:56:04.195Z,0
2023-05-08T18:57:44.634Z,0
2023-05-08T18:59:24.943Z,0
2023-05-08T19:01:05.404Z,0
2023-05-08T19:02:45.742Z,0
2023-05-08T19:04:26.011Z,0
2023-05-08T19:06:06.318Z,0
2023-05-08T19:07:46.748Z,0
2023-05-08T19:09:27.162Z,0
2023-05-08T19:11:07.556Z,0
2023-05-08T19:12:48.071Z,0
2023-05-08T19:14:28.439Z,0
2023-05-08T19:16:08.842Z,0
2023-05-08T19:17:49.173Z,0
2023-05-08T19:19:29.609Z,0
2023-05-08T19:21:10.041Z,0
2023-05-08T19:22:50.377Z,0
2023-05-08T19:24:30.852Z,0
2023-05-08T19:26:11.332Z,0
2023-05-08T19:27:51.683Z,0
2023-05-08T19:29:34.819Z,0
2023-05-08T19:31:12.571Z,0
2023-05-08T19:32:52.945Z,0
2023-05-08T19:34:33.394Z,0
2023-05-08T19:36:13.781Z,0
2023-05-08T19:37:54.138Z,0
2023-05-08T19:39:34.604Z,0
2023-05-08T19:41:14.981Z,0
2023-05-08T19:42:55.451Z,0
2023-05-08T19:44:35.912Z,0
2023-05-08T19:46:19.408Z,0
2023-05-08T19:47:56.764Z,0
2023-05-08T19:49:37.098Z,0
2023-05-08T19:51:17.544Z,0
2023-05-08T19:52:57.926Z,0
2023-05-08T19:54:38.396Z,0
2023-05-08T19:56:18.874Z,0
2023-05-08T19:57:59.328Z,0
2023-05-08T19:59:39.812Z,0
2023-05-08T20:01:20.261Z,0
2023-05-08T20:03:00.708Z,0
2023-05-08T20:06:21.399Z,0
2023-05-08T20:08:01.819Z,0
2023-05-08T20:09:42.138Z,0
2023-05-08T20:11:22.618Z,0
2023-05-08T20:13:03.096Z,0
2023-05-08T20:14:43.422Z,0
2023-05-08T20:16:23.868Z,0
2023-05-08T20:18:04.318Z,0
2023-05-08T20:19:44.777Z,0
2023-05-08T20:21:25.143Z,0
2023-05-08T20:23:05.532Z,0
2023-05-08T20:24:45.949Z,0
2023-05-08T20:26:26.385Z,0
2023-05-08T20:28:06.739Z,0
2023-05-08T20:29:47.062Z,0
2023-05-08T20:31:27.528Z,0
2023-05-08T20:33:07.884Z,0
2023-05-08T20:34:48.213Z,0
2023-05-08T20:36:28.614Z,0
2023-05-08T20:38:09.050Z,0
2023-05-08T20:39:49.432Z,0
2023-05-08T20:41:29.782Z,0
2023-05-08T20:43:10.282Z,0
2023-05-08T20:44:50.662Z,0
2023-05-08T20:46:31.081Z,0
2023-05-08T20:48:11.466Z,0
2023-05-08T20:49:51.936Z,0
2023-05-08T20:51:32.443Z,0
2023-05-08T20:53:12.897Z,0
2023-05-08T20:54:53.304Z,0
2023-05-08T20:56:33.801Z,0
2023-05-08T20:58:14.182Z,0
2023-05-08T20:59:54.598Z,0
2023-05-08T21:01:35.083Z,0
2023-05-08T21:03:15.464Z,0
2023-05-08T21:04:55.930Z,0
2023-05-08T21:06:36.328Z,0
2023-05-08T21:08:16.641Z,0
2023-05-08T21:09:57.000Z,0
2023-05-08T21:11:37.439Z,0
2023-05-08T21:13:17.822Z,0
2023-05-08T21:14:58.211Z,0
2023-05-08T21:16:38.726Z,0
2023-05-08T21:18:19.128Z,0
2023-05-08T21:19:59.580Z,0
2023-05-08T21:21:40.063Z,0
2023-05-08T21:23:20.547Z,0
2023-05-08T21:25:00.963Z,0
2023-05-08T21:26:41.406Z,0
2023-05-08T21:28:21.814Z,0
2023-05-08T21:30:02.211Z,0
2023-05-08T21:31:42.641Z,0
2023-05-08T21:33:23.010Z,0
2023-05-08T21:35:03.420Z,0
2023-05-08T21:36:43.904Z,0
2023-05-08T21:38:24.213Z,0
2023-05-08T21:40:04.530Z,0
2023-05-08T21:41:44.833Z,0
2023-05-08T21:43:25.200Z,0
2023-05-08T21:45:05.625Z,0
2023-05-08T21:46:46.074Z,0
2023-05-08T21:48:26.487Z,0
2023-05-08T21:50:06.918Z,0
2023-05-08T21:51:47.422Z,0
2023-05-08T21:53:27.796Z,0
2023-05-08T21:55:08.168Z,0
2023-05-08T21:56:48.676Z,0
2023-05-08T21:58:29.096Z,0
2023-05-08T22:00:09.536Z,0
2023-05-08T22:01:49.965Z,0
2023-05-08T22:03:30.396Z,0
2023-05-08T22:05:10.802Z,0
2023-05-08T22:06:51.189Z,0
2023-05-08T22:08:31.612Z,0
2023-05-08T22:10:11.985Z,0
2023-05-08T22:11:52.254Z,0
2023-05-08T22:13:32.585Z,0
2023-05-08T22:15:25.700Z,0
2023-05-08T22:16:53.279Z,0
2023-05-08T22:18:33.637Z,0
2023-05-08T22:20:14.011Z,0
2023-05-08T22:21:54.504Z,0
2023-05-08T22:23:34.914Z,0
2023-05-08T22:25:15.469Z,0
2023-05-08T22:26:55.804Z,0
2023-05-08T22:28:36.174Z,0
2023-05-08T22:30:16.589Z,0
2023-05-08T22:31:57.048Z,0
2023-05-08T22:33:37.320Z,0
2023-05-08T22:35:17.740Z,0
2023-05-08T22:36:58.264Z,0
2023-05-08T22:38:38.655Z,0
2023-05-08T22:40:19.062Z,0